Time;durP1;ratioP1;P1;durP2;ratioP2;P2;SDS_P1;SDS_P2;PMS_P1;PMS_P2;Temp;Humidity;BMP_temperature;BMP_pressure;BME280_temperature;BME280_humidity;BME280_pressure;Samples;Min_cycle;Max_cycle;Signal;HPM_P1;HPM_P2
2022/06/28 00:00:17;;;;;;;7.82;3.80;;;;;;;11.97;100.00;101960.00;4903608;29;20043;-76
2022/06/28 00:02:42;;;;;;;5.50;3.78;;;;;;;11.94;100.00;101963.63;4901826;29;20044;-76
2022/06/28 00:05:09;;;;;;;5.47;3.40;;;;;;;11.91;100.00;101959.28;4921034;29;20043;-77
2022/06/28 00:07:34;;;;;;;5.88;3.80;;;;;;;11.92;100.00;101968.09;4897931;29;20130;-76
2022/06/28 00:10:00;;;;;;;5.28;3.90;;;;;;;11.92;100.00;101965.44;4916332;29;20035;-76
2022/06/28 00:12:25;;;;;;;7.82;3.75;;;;;;;11.93;100.00;101962.72;4917827;29;20059;-78
2022/06/28 00:17:35;;;;;;;5.20;4.15;;;;;;;11.87;100.00;101962.94;4919018;29;20501;-76
2022/06/28 00:20:01;;;;;;;5.53;4.22;;;;;;;11.87;100.00;101967.41;4920007;29;20074;-75
2022/06/28 00:22:26;;;;;;;6.75;4.80;;;;;;;11.86;100.00;101960.31;4902517;29;20581;-78
2022/06/28 00:24:52;;;;;;;7.13;4.55;;;;;;;11.86;100.00;101968.28;4883355;29;20935;-78
2022/06/28 00:27:18;;;;;;;5.22;3.90;;;;;;;11.81;100.00;101964.00;4890326;29;20126;-78
2022/06/28 00:29:44;;;;;;;5.75;4.38;;;;;;;11.78;100.00;101972.06;4917389;29;20237;-77
2022/06/28 00:32:09;;;;;;;7.70;4.50;;;;;;;11.79;100.00;101975.59;4902478;29;20039;-77
2022/06/28 00:34:35;;;;;;;7.15;4.65;;;;;;;11.74;100.00;101978.41;4919876;29;20502;-78
2022/06/28 00:37:00;;;;;;;7.25;4.18;;;;;;;11.73;100.00;101967.81;4917973;29;20043;-77
2022/06/28 00:39:26;;;;;;;5.10;3.75;;;;;;;11.70;100.00;101970.59;4920195;29;20051;-77
2022/06/28 00:41:51;;;;;;;5.82;3.58;;;;;;;11.68;100.00;101970.63;4881747;29;20031;-78
2022/06/28 00:44:17;;;;;;;7.32;4.55;;;;;;;11.66;100.00;101969.81;4920111;29;20035;-78
2022/06/28 00:46:43;;;;;;;7.30;4.38;;;;;;;11.67;100.00;101967.09;4869064;29;20451;-78
2022/06/28 00:49:10;;;;;;;6.20;3.85;;;;;;;11.72;100.00;101976.72;4896447;29;20118;-78
2022/06/28 00:51:35;;;;;;;4.95;3.90;;;;;;;11.71;100.00;101975.81;4904403;29;20407;-77
2022/06/28 00:54:01;;;;;;;6.38;4.20;;;;;;;11.72;100.00;101977.56;4920549;29;20032;-77
2022/06/28 00:56:27;;;;;;;7.18;4.80;;;;;;;11.75;100.00;101972.16;4914829;29;20095;-78
2022/06/28 00:58:55;;;;;;;11.00;5.10;;;;;;;11.78;100.00;101981.81;4900818;29;20608;-78
2022/06/28 01:01:21;;;;;;;9.85;4.85;;;;;;;11.73;100.00;101974.03;4904071;29;20042;-78
2022/06/28 01:03:47;;;;;;;9.27;4.85;;;;;;;11.75;100.00;101980.13;4921240;29;20081;-78
2022/06/28 01:06:13;;;;;;;13.48;5.20;;;;;;;11.75;100.00;101980.13;4874030;29;20122;-77
2022/06/28 01:08:39;;;;;;;6.43;4.95;;;;;;;11.74;100.00;101983.72;4902527;29;20794;-78
2022/06/28 01:11:19;;;;;;;7.32;4.93;;;;;;;11.75;100.00;101985.44;4905688;29;20046;-78
2022/06/28 01:13:50;;;;;;;8.10;4.88;;;;;;;11.74;100.00;101989.00;4923349;29;20035;-78
2022/06/28 01:16:16;;;;;;;10.32;5.00;;;;;;;11.75;100.00;101984.56;4898647;29;20605;-79
2022/06/28 01:18:42;;;;;;;8.52;5.10;;;;;;;11.72;100.00;101988.16;4900143;29;20639;-78
2022/06/28 01:21:07;;;;;;;8.70;5.03;;;;;;;11.71;100.00;101989.09;4905338;29;20039;-78
2022/06/28 01:23:33;;;;;;;7.45;4.82;;;;;;;11.71;100.00;101986.44;4905383;29;21032;-78
2022/06/28 01:25:59;;;;;;;6.82;4.93;;;;;;;11.69;100.00;101988.28;4904478;29;20054;-78
2022/06/28 01:28:25;;;;;;;6.55;4.53;;;;;;;11.65;100.00;101992.81;4904863;29;20395;-78
2022/06/28 01:30:51;;;;;;;5.65;4.72;;;;;;;11.63;100.00;101994.66;4905010;29;20346;-78
2022/06/28 01:33:17;;;;;;;10.95;5.40;;;;;;;11.63;100.00;101991.13;4904461;29;20059;-78
2022/06/28 01:35:43;;;;;;;11.45;4.78;;;;;;;11.62;100.00;101992.94;4900474;29;20474;-77
2022/06/28 01:38:09;;;;;;;7.05;4.95;;;;;;;11.65;100.00;101995.47;4906244;29;20170;-78
2022/06/28 01:40:34;;;;;;;6.80;4.43;;;;;;;11.64;100.00;101996.41;4903014;29;21059;-79
2022/06/28 01:43:00;;;;;;;6.07;4.22;;;;;;;11.63;100.00;101999.97;4901126;29;20595;-78
2022/06/28 01:45:27;;;;;;;8.27;4.10;;;;;;;11.64;100.00;102000.81;4899122;29;20027;-77
2022/06/28 01:47:52;;;;;;;6.88;3.78;;;;;;;11.65;100.00;102005.19;4905432;29;20035;-78
2022/06/28 01:50:18;;;;;;;6.55;3.63;;;;;;;11.68;100.00;102010.44;4904280;29;20582;-78
2022/06/28 01:52:44;;;;;;;6.15;3.63;;;;;;;11.70;100.00;102008.59;4889350;29;20926;-77
2022/06/28 01:55:09;;;;;;;9.35;4.05;;;;;;;11.71;100.00;102009.47;4922794;29;20036;-77
2022/06/28 01:57:35;;;;;;;7.63;3.35;;;;;;;11.71;100.00;102010.31;4903301;29;20175;-78
2022/06/28 02:00:01;;;;;;;8.02;3.55;;;;;;;11.75;100.00;102011.09;4921677;29;20059;-78
2022/06/28 02:02:26;;;;;;;9.15;3.97;;;;;;;11.75;100.00;102004.00;4918164;29;20182;-78
2022/06/28 02:04:52;;;;;;;7.82;3.40;;;;;;;11.75;100.00;102011.09;4904513;29;20562;-78
2022/06/28 02:07:17;;;;;;;6.40;3.45;;;;;;;11.74;100.00;102012.88;4905293;29;20095;-77
2022/06/28 02:09:43;;;;;;;7.15;3.00;;;;;;;11.72;100.00;102012.03;4886350;29;20032;-77
2022/06/28 02:12:08;;;;;;;3.58;2.58;;;;;;;11.74;100.00;102018.19;4916350;28;20030;-78
2022/06/28 02:14:34;;;;;;;5.63;2.75;;;;;;;11.72;100.00;102014.69;4904397;29;20043;-77
2022/06/28 02:16:59;;;;;;;4.03;2.88;;;;;;;11.72;100.00;102012.03;4921371;29;20628;-77
2022/06/28 02:19:28;;;;;;;4.22;2.60;;;;;;;11.71;100.00;102014.78;4921513;29;20031;-77
2022/06/28 02:21:53;;;;;;;4.05;2.58;;;;;;;11.68;100.00;102021.03;4922988;29;20047;-77
2022/06/28 02:24:21;;;;;;;5.85;2.67;;;;;;;11.70;100.00;102028.94;4903787;29;20119;-77
2022/06/28 02:26:47;;;;;;;5.00;2.67;;;;;;;11.69;100.00;102022.78;4920296;29;20057;-77
2022/06/28 02:29:12;;;;;;;5.15;2.65;;;;;;;11.70;100.00;102026.31;4921553;29;20111;-78
2022/06/28 02:31:38;;;;;;;9.95;2.55;;;;;;;11.70;100.00;102024.50;4904120;29;20042;-77
2022/06/28 02:34:04;;;;;;;4.35;2.00;;;;;;;11.71;100.00;102028.88;4919701;29;20083;-78
2022/06/28 02:41:59;;;;;;;4.50;1.83;;;;;;;11.79;100.00;102033.97;4915095;29;20039;-77
2022/06/28 02:44:24;;;;;;;4.85;1.45;;;;;;;11.77;100.00;102026.03;4920465;29;20031;-77
2022/06/28 02:46:50;;;;;;;1.58;1.35;;;;;;;11.78;100.00;102035.72;4878521;29;20031;-77
2022/06/28 02:49:15;;;;;;;4.45;1.63;;;;;;;11.77;100.00;102034.00;4905314;29;20043;-77
2022/06/28 02:51:41;;;;;;;2.35;1.27;;;;;;;11.75;100.00;102027.00;4922124;29;20085;-76
2022/06/28 02:54:07;;;;;;;3.33;1.50;;;;;;;11.74;100.00;102031.47;4905115;29;20098;-77
2022/06/28 02:56:34;;;;;;;3.80;1.52;;;;;;;11.73;100.00;102029.72;4920678;29;20391;-76
2022/06/28 02:58:59;;;;;;;4.20;1.50;;;;;;;11.73;100.00;102036.81;4905028;29;20170;-76
2022/06/28 03:01:25;;;;;;;4.40;1.20;;;;;;;11.73;100.00;102045.66;4921630;29;21751;-77
2022/06/28 03:03:50;;;;;;;2.75;1.35;;;;;;;11.71;100.00;102042.16;4922515;29;20031;-77
2022/06/28 03:06:16;;;;;;;1.77;1.30;;;;;;;11.69;100.00;102046.66;4922130;29;20038;-77
2022/06/28 03:08:41;;;;;;;5.82;1.52;;;;;;;11.66;100.00;102044.94;4919719;29;20040;-77
2022/06/28 03:11:07;;;;;;;1.75;1.38;;;;;;;11.66;100.00;102038.78;4922214;29;20032;-77
2022/06/28 03:13:32;;;;;;;1.52;1.27;;;;;;;11.63;100.00;102044.19;4921472;29;20047;-77
2022/06/28 03:15:58;;;;;;;1.20;0.90;;;;;;;11.63;100.00;102049.47;4919636;29;20043;-77
2022/06/28 03:18:23;;;;;;;2.00;1.13;;;;;;;11.61;100.00;102043.38;4920170;29;20036;-77
2022/06/28 03:20:49;;;;;;;4.05;1.40;;;;;;;11.61;100.00;102048.66;4921703;29;20031;-77
2022/06/28 03:23:14;;;;;;;1.38;1.10;;;;;;;11.62;100.00;102047.75;4899070;29;20039;-77
2022/06/28 03:25:40;;;;;;;2.10;1.23;;;;;;;11.62;100.00;102050.41;4902721;29;20547;-77
2022/06/28 03:28:06;;;;;;;2.55;1.20;;;;;;;11.63;100.00;102047.72;4921279;29;20528;-77
2022/06/28 03:30:31;;;;;;;1.40;1.10;;;;;;;11.65;100.00;102056.47;4920391;29;20071;-77
2022/06/28 03:32:57;;;;;;;1.88;1.05;;;;;;;11.66;100.00;102052.06;4922199;29;20031;-77
2022/06/28 03:35:23;;;;;;;3.08;1.23;;;;;;;11.69;100.00;102057.25;4905194;29;20049;-77
2022/06/28 03:37:49;;;;;;;5.68;1.35;;;;;;;11.68;100.00;102055.53;4898504;29;20050;-77
2022/06/28 03:40:14;;;;;;;2.35;1.20;;;;;;;11.65;100.00;102056.47;4921167;29;20494;-77
2022/06/28 03:42:40;;;;;;;1.83;1.40;;;;;;;11.64;100.00;102061.81;4897632;29;20043;-77
2022/06/28 03:45:10;;;;;;;2.60;1.27;;;;;;;11.62;100.00;102066.31;4898523;29;20394;-77
2022/06/28 03:47:36;;;;;;;2.38;1.40;;;;;;;11.63;100.00;102066.28;4898326;29;20183;-77
2022/06/28 03:50:02;;;;;;;2.03;1.50;;;;;;;11.69;100.00;102067.88;4903334;29;20040;-77
2022/06/28 03:52:30;;;;;;;2.50;1.50;;;;;;;11.73;100.00;102071.28;4918297;29;20162;-77
2022/06/28 03:54:57;;;;;;;1.90;1.45;;;;;;;11.71;100.00;102068.69;4881729;29;20026;-77
2022/06/28 03:57:24;;;;;;;4.60;1.60;;;;;;;11.70;100.00;102066.94;4902703;29;20627;-77
2022/06/28 03:59:50;;;;;;;5.20;1.50;;;;;;;11.74;100.00;102065.06;4901929;29;20054;-77
2022/06/28 04:02:15;;;;;;;2.92;1.83;;;;;;;11.78;100.00;102064.91;4896891;29;20067;-77
2022/06/28 04:04:41;;;;;;;5.20;1.80;;;;;;;11.81;100.00;102064.84;4919684;29;20043;-77
2022/06/28 04:07:06;;;;;;;4.40;1.98;;;;;;;11.84;100.00;102073.59;4921348;29;20820;-77
2022/06/28 04:09:32;;;;;;;1.75;1.55;;;;;;;11.86;100.00;102067.34;4901284;29;21710;-77
2022/06/28 04:11:57;;;;;;;2.67;1.35;;;;;;;11.88;100.00;102067.31;4903381;29;20502;-77
2022/06/28 04:14:23;;;;;;;3.97;1.83;;;;;;;11.89;100.00;102072.56;4904291;29;20087;-77
2022/06/28 04:16:48;;;;;;;3.58;1.52;;;;;;;11.92;100.00;102076.88;4920749;29;20039;-79
2022/06/28 04:19:14;;;;;;;7.45;1.95;;;;;;;11.95;100.00;102071.50;4887148;29;20103;-79
2022/06/28 04:21:39;;;;;;;2.35;1.60;;;;;;;11.97;100.00;102074.13;4913668;29;20031;-79
2022/06/28 04:24:05;;;;;;;5.90;2.17;;;;;;;11.98;100.00;102076.69;4919593;29;20047;-79
2022/06/28 04:26:31;;;;;;;5.57;2.30;;;;;;;11.99;100.00;102082.88;4917652;29;20047;-79
2022/06/28 04:28:57;;;;;;;2.70;2.08;;;;;;;12.00;100.00;102080.19;4895690;29;20397;-79
2022/06/28 04:31:22;;;;;;;3.85;2.22;;;;;;;12.04;100.00;102086.31;4918382;29;20478;-79
2022/06/28 04:33:48;;;;;;;5.10;2.38;;;;;;;12.05;100.00;102077.41;4921278;28;20457;-79
2022/06/28 04:36:13;;;;;;;5.85;2.25;;;;;;;12.10;100.00;102080.81;4922733;29;20549;-79
2022/06/28 04:38:39;;;;;;;6.88;2.17;;;;;;;12.13;100.00;102083.34;4922656;29;20131;-77
2022/06/28 04:41:07;;;;;;;3.67;2.10;;;;;;;12.17;100.00;102076.16;4885275;29;20038;-80
2022/06/28 04:43:33;;;;;;;9.27;2.42;;;;;;;12.21;100.00;102070.69;4920848;29;20094;-80
2022/06/28 04:45:59;;;;;;;5.85;2.53;;;;;;;12.26;100.00;102078.47;4919886;29;20520;-79
2022/06/28 04:48:27;;;;;;;3.38;2.20;;;;;;;12.31;100.00;102084.53;4905981;29;20380;-79
2022/06/28 04:50:53;;;;;;;5.05;2.20;;;;;;;12.35;100.00;102087.94;4891122;29;20376;-78
2022/06/28 04:53:18;;;;;;;6.20;2.35;;;;;;;12.39;100.00;102084.28;4907489;29;20035;-79
2022/06/28 04:55:44;;;;;;;4.03;2.35;;;;;;;12.46;100.00;102088.47;4906386;29;20035;-77
2022/06/28 04:58:09;;;;;;;3.97;2.45;;;;;;;12.52;100.00;102087.38;4905972;29;20170;-80
2022/06/28 05:00:35;;;;;;;5.70;2.38;;;;;;;12.57;100.00;102084.56;4917709;29;20027;-79
2022/06/28 05:03:01;;;;;;;3.42;2.20;;;;;;;12.63;100.00;102082.56;4905638;29;21687;-79
2022/06/28 05:05:26;;;;;;;6.07;2.38;;;;;;;12.72;100.00;102088.47;4904098;29;20043;-79
2022/06/28 05:07:52;;;;;;;4.78;2.40;;;;;;;12.81;100.00;102081.97;4921748;29;20043;-77
2022/06/28 05:10:17;;;;;;;3.40;2.40;;;;;;;12.86;100.00;102080.91;4919320;29;20035;-78
2022/06/28 05:12:43;;;;;;;5.78;2.50;;;;;;;12.93;100.00;102078.91;4906734;29;20051;-77
2022/06/28 05:15:09;;;;;;;3.70;2.50;;;;;;;12.99;100.00;102076.03;4920780;29;20393;-77
2022/06/28 05:17:35;;;;;;;4.78;2.30;;;;;;;13.08;100.00;102076.59;4916180;29;20042;-79
2022/06/28 05:20:02;;;;;;;6.05;2.42;;;;;;;13.15;100.00;102079.00;4922094;29;20035;-77
2022/06/28 05:22:27;;;;;;;3.70;2.38;;;;;;;13.25;100.00;102070.66;4924087;29;20095;-77
2022/06/28 05:24:53;;;;;;;4.72;2.47;;;;;;;13.35;100.00;102077.34;4902693;29;20044;-77
2022/06/28 05:27:18;;;;;;;5.47;2.20;;;;;;;13.50;100.00;102075.09;4888915;29;20637;-77
2022/06/28 05:29:44;;;;;;;5.13;2.45;;;;;;;13.68;100.00;102074.38;4921065;29;20462;-78
2022/06/28 05:32:09;;;;;;;3.65;2.25;;;;;;;13.88;100.00;102078.03;4923102;29;20090;-78
2022/06/28 05:34:35;;;;;;;2.97;1.90;;;;;;;14.04;100.00;102080.06;4901683;29;20043;-78
2022/06/28 05:37:00;;;;;;;4.15;2.40;;;;;;;14.19;100.00;102079.47;4906284;29;20069;-78
2022/06/28 05:39:26;;;;;;;6.10;2.20;;;;;;;14.29;100.00;102071.97;4916735;29;20036;-78
2022/06/28 05:41:51;;;;;;;2.38;1.98;;;;;;;14.38;100.00;102071.56;4923673;29;20118;-78
2022/06/28 05:44:17;;;;;;;4.00;2.15;;;;;;;14.51;100.00;102079.91;4922160;29;20390;-78
2022/06/28 05:46:44;;;;;;;2.95;2.00;;;;;;;14.66;100.00;102070.41;4922254;29;20032;-77
2022/06/28 05:49:10;;;;;;;3.42;2.20;;;;;;;14.88;100.00;102077.47;4923040;29;20042;-77
2022/06/28 05:51:35;;;;;;;4.05;1.77;;;;;;;15.11;100.00;102082.72;4905353;29;20051;-78
2022/06/28 05:54:04;;;;;;;2.30;1.40;;;;;;;15.33;100.00;102071.94;4920936;29;20066;-78
2022/06/28 05:56:35;;;;;;;3.90;1.50;;;;;;;15.54;100.00;102075.44;4905525;29;20056;-78
2022/06/28 05:59:00;;;;;;;3.90;1.23;;;;;;;15.72;100.00;102067.47;4922598;29;20047;-78
2022/06/28 06:01:26;;;;;;;3.70;1.25;;;;;;;15.93;100.00;102073.63;4905504;29;20038;-78
2022/06/28 06:03:51;;;;;;;3.08;1.10;;;;;;;16.05;100.00;102069.47;4865610;29;20060;-78
2022/06/28 06:06:17;;;;;;;1.75;1.20;;;;;;;16.22;100.00;102070.44;4923203;29;20039;-78
2022/06/28 06:08:43;;;;;;;2.13;0.95;;;;;;;16.38;100.00;102075.88;4921191;29;21450;-78
2022/06/28 06:11:08;;;;;;;7.32;1.40;;;;;;;16.54;100.00;102081.31;4903693;29;20035;-78
2022/06/28 06:13:35;;;;;;;5.35;1.23;;;;;;;16.69;100.00;102082.34;4901091;29;20250;-78
2022/06/28 06:16:00;;;;;;;2.95;0.80;;;;;;;16.77;100.00;102095.31;4896665;29;20051;-80
2022/06/28 07:22:33;;;;;;;2.42;0.82;;;;;;;19.58;79.89;102132.09;5222765;23;20047;-82
2022/06/28 07:25:00;;;;;;;2.28;0.90;;;;;;;19.51;84.66;102128.09;4898295;29;20097;-87
2022/06/28 07:27:26;;;;;;;3.50;1.15;;;;;;;19.61;90.54;102123.84;4902574;29;20032;-86
2022/06/28 07:29:52;;;;;;;2.40;1.02;;;;;;;19.70;90.46;102121.50;4883173;29;20741;-83
2022/06/28 07:32:18;;;;;;;4.03;1.00;;;;;;;19.73;78.53;102126.69;4900362;29;20086;-84
2022/06/28 07:34:44;;;;;;;0.90;0.65;;;;;;;19.71;84.72;102121.41;4900304;29;20048;-86
2022/06/28 07:37:10;;;;;;;4.55;1.20;;;;;;;19.87;87.31;102125.81;4872299;29;20047;-85
2022/06/28 07:39:36;;;;;;;4.93;1.00;;;;;;;20.03;89.35;102123.88;4899805;29;20988;-86
2022/06/28 07:42:02;;;;;;;2.70;0.80;;;;;;;20.16;88.51;102133.81;4905559;29;20123;-82
2022/06/28 07:44:28;;;;;;;1.58;0.65;;;;;;;20.27;83.06;102122.34;4885655;29;20188;-85
2022/06/28 07:46:53;;;;;;;0.68;0.60;;;;;;;20.32;80.54;102123.75;4894269;29;20040;-90
2022/06/28 07:49:19;;;;;;;1.60;0.70;;;;;;;20.34;81.80;102126.34;4885824;29;20059;-89
2022/06/28 07:54:29;;;;;;;3.75;1.20;;;;;;;20.50;83.26;102126.19;4886795;29;20048;-87
2022/06/28 07:56:57;;;;;;;1.88;0.90;;;;;;;20.59;82.88;102120.16;4883576;29;20079;-86
2022/06/28 07:59:23;;;;;;;4.75;0.98;;;;;;;20.74;83.17;102112.88;4866124;29;20039;-87
2022/06/28 08:01:48;;;;;;;2.08;1.02;;;;;;;20.67;81.26;102126.84;4902587;29;20040;-85
2022/06/28 08:04:14;;;;;;;1.27;0.60;;;;;;;20.68;79.96;102128.56;4872375;29;20043;-87
2022/06/28 08:06:40;;;;;;;2.47;0.70;;;;;;;20.74;78.16;102129.03;4880229;29;20122;-87
2022/06/28 08:09:06;;;;;;;2.60;0.95;;;;;;;20.55;64.27;102136.63;4888924;29;20035;-82
2022/06/28 08:11:33;;;;;;;0.98;0.90;;;;;;;20.39;73.11;102134.97;4889225;29;20070;-86
2022/06/28 08:14:00;;;;;;;3.50;0.80;;;;;;;20.45;75.40;102126.50;4892313;29;20039;-83
2022/06/28 08:16:25;;;;;;;1.85;0.80;;;;;;;20.46;71.95;102130.91;4904626;29;20566;-83
2022/06/28 08:18:51;;;;;;;1.70;0.80;;;;;;;20.46;72.11;102128.22;4924420;29;20040;-88
2022/06/28 08:21:16;;;;;;;1.98;0.52;;;;;;;20.54;73.46;102126.84;4875586;29;20102;-88
2022/06/28 08:23:42;;;;;;;2.13;0.82;;;;;;;20.67;73.80;102124.16;4890967;29;20048;-85
2022/06/28 08:26:08;;;;;;;0.73;0.60;;;;;;;20.84;69.27;102121.22;4903177;29;20150;-91
2022/06/28 08:28:33;;;;;;;1.77;0.75;;;;;;;20.94;70.29;102126.81;4882946;29;20136;-85
2022/06/28 08:30:59;;;;;;;1.58;0.90;;;;;;;21.01;72.61;102130.81;4867984;29;20044;-87
2022/06/28 08:33:24;;;;;;;1.13;0.60;;;;;;;21.17;73.66;102124.34;4887060;29;21616;-83
2022/06/28 08:35:50;;;;;;;1.67;0.60;;;;;;;21.29;74.83;102131.56;4884806;29;20052;-86
2022/06/28 08:38:18;;;;;;;2.58;0.80;;;;;;;21.48;71.31;102130.25;4898112;29;20061;-83
2022/06/28 08:40:45;;;;;;;2.92;0.82;;;;;;;21.62;75.87;102125.69;4900005;29;20039;-81
2022/06/28 08:43:11;;;;;;;2.10;0.63;;;;;;;21.62;69.87;102126.53;4884041;29;20036;-86
2022/06/28 08:45:37;;;;;;;0.93;0.52;;;;;;;21.50;68.62;102136.38;4881012;29;20178;-82
2022/06/28 08:48:16;;;;;;;3.95;0.70;;;;;;;21.46;60.00;102131.31;4884628;29;20043;-81
2022/06/28 08:50:46;;;;;;;1.15;0.70;;;;;;;21.42;66.93;102126.13;4885506;29;20044;-86
2022/06/28 08:53:12;;;;;;;1.65;0.90;;;;;;;21.53;70.80;102124.50;4885999;29;20074;-83
2022/06/28 08:55:38;;;;;;;2.83;0.80;;;;;;;21.51;71.98;102130.00;4913322;29;20040;-82
2022/06/28 08:58:08;;;;;;;2.47;0.80;;;;;;;21.54;69.36;102132.50;4896245;29;20217;-81
2022/06/28 09:00:33;;;;;;;3.95;0.70;;;;;;;21.53;65.62;102130.75;4913245;29;20046;-85
2022/06/28 09:03:00;;;;;;;0.82;0.60;;;;;;;21.42;64.01;102128.00;4898702;29;20055;-78
2022/06/28 09:05:27;;;;;;;2.25;0.70;;;;;;;21.37;68.69;102131.00;4915891;29;20555;-83
2022/06/28 09:07:54;;;;;;;1.30;0.68;;;;;;;21.38;68.91;102123.78;4900372;29;20040;-83
2022/06/28 09:10:20;;;;;;;0.47;0.40;;;;;;;21.48;61.57;102123.97;4896519;29;20537;-80
2022/06/28 09:12:55;;;;;;;1.33;0.77;;;;;;;21.28;59.93;102127.13;4895886;29;20051;-83
2022/06/28 09:15:27;;;;;;;1.55;0.75;;;;;;;21.37;66.37;102122.94;4896862;29;20479;-81
2022/06/28 09:17:53;;;;;;;1.50;0.90;;;;;;;21.53;66.08;102119.97;4904024;29;20439;-81
2022/06/28 09:20:19;;;;;;;1.38;0.60;;;;;;;21.61;65.16;102129.38;4899326;29;20055;-89
2022/06/28 09:22:45;;;;;;;2.13;0.88;;;;;;;21.51;65.94;102121.09;4897287;29;20064;-80
2022/06/28 09:25:30;;;;;;;1.83;0.77;;;;;;;21.50;66.04;102112.13;4879167;29;20079;-81
2022/06/28 09:27:58;;;;;;;2.50;0.80;;;;;;;21.54;67.88;102116.34;4884781;29;20057;-80
2022/06/28 09:30:30;;;;;;;1.40;0.82;;;;;;;21.64;68.14;102112.97;4895927;29;20087;-83
2022/06/28 09:32:56;;;;;;;2.30;0.65;;;;;;;21.86;68.17;102106.88;4896115;29;20282;-82
2022/06/28 09:35:24;;;;;;;1.67;0.70;;;;;;;21.97;60.08;102114.19;4881349;29;20041;-86
2022/06/28 09:37:51;;;;;;;1.17;0.85;;;;;;;21.90;66.33;102108.38;4897479;29;20698;-88
2022/06/28 09:40:22;;;;;;;1.05;0.55;;;;;;;22.04;66.56;102114.56;4881193;29;20035;-81
2022/06/28 09:43:07;;;;;;;2.38;0.70;;;;;;;22.24;63.57;102105.00;4897853;29;20117;-82
2022/06/28 09:45:34;;;;;;;1.33;0.77;;;;;;;22.21;65.83;102102.50;4898363;29;20123;-82
2022/06/28 09:48:01;;;;;;;2.42;0.93;;;;;;;22.25;64.23;102106.72;4898420;29;20040;-87
2022/06/28 09:50:26;;;;;;;2.03;0.70;;;;;;;22.19;63.02;102104.47;4898975;29;20578;-84
2022/06/28 09:52:52;;;;;;;2.47;0.85;;;;;;;22.01;55.84;102104.03;4898296;29;20054;-82
2022/06/28 09:55:19;;;;;;;1.55;0.65;;;;;;;21.71;61.05;102103.47;4878013;29;21198;-83
2022/06/28 09:57:47;;;;;;;1.88;0.73;;;;;;;21.56;62.34;102105.44;4878121;29;20615;-84
2022/06/28 10:00:15;;;;;;;1.63;0.80;;;;;;;21.57;63.16;102099.06;4896615;29;20086;-83
2022/06/28 10:02:42;;;;;;;2.28;0.80;;;;;;;21.37;61.20;102105.91;4883705;29;20047;-84
2022/06/28 10:05:09;;;;;;;1.83;0.68;;;;;;;21.14;63.30;102106.56;4899453;29;20075;-84
2022/06/28 10:07:35;;;;;;;2.58;0.80;;;;;;;21.08;62.55;102101.63;4884778;29;20035;-84
2022/06/28 10:10:03;;;;;;;2.65;0.70;;;;;;;21.10;63.43;102105.09;4883514;29;20523;-83
2022/06/28 10:15:21;;;;;;;3.33;0.88;;;;;;;20.92;63.35;102092.91;4900704;29;21153;-84
2022/06/28 10:17:50;;;;;;;1.65;0.95;;;;;;;21.10;64.42;102090.75;4889083;29;20525;-83
2022/06/28 10:20:22;;;;;;;2.20;0.90;;;;;;;21.20;64.62;102099.03;4882721;29;20044;-83
2022/06/28 10:22:47;;;;;;;1.90;0.75;;;;;;;21.41;65.49;102102.03;4880268;29;20151;-82
2022/06/28 10:25:16;;;;;;;2.28;1.05;;;;;;;21.52;64.74;102088.63;4877332;29;20130;-89
2022/06/28 10:27:47;;;;;;;2.67;0.82;;;;;;;21.55;64.20;102085.72;4896878;29;20036;-82
2022/06/28 10:30:32;;;;;;;3.05;1.15;;;;;;;21.59;61.79;102089.06;4913247;29;20051;-83
2022/06/28 10:33:04;;;;;;;3.13;1.05;;;;;;;21.61;63.77;102087.09;4909981;29;20078;-85
2022/06/28 10:35:34;;;;;;;2.53;1.00;;;;;;;21.64;63.32;102086.88;4894575;29;20046;-84
2022/06/28 10:38:08;;;;;;;1.05;0.95;;;;;;;21.73;63.18;102085.34;4914460;29;20036;-83
2022/06/28 10:40:54;;;;;;;2.55;1.08;;;;;;;21.70;61.80;102083.75;4912704;29;20071;-82
2022/06/28 10:43:26;;;;;;;2.28;1.13;;;;;;;21.83;62.04;102081.03;4880263;29;20106;-83
2022/06/28 10:46:04;;;;;;;1.33;0.90;;;;;;;21.83;62.98;102081.03;4898763;29;20043;-83
2022/06/28 10:48:30;;;;;;;1.45;0.93;;;;;;;21.77;63.43;102076.09;4911580;29;20047;-87
2022/06/28 10:50:57;;;;;;;2.63;1.10;;;;;;;21.71;63.66;102081.94;4898136;29;20058;-89
2022/06/28 10:53:27;;;;;;;1.63;0.80;;;;;;;21.73;62.10;102084.50;4914223;29;20044;-90
2022/06/28 10:56:19;;;;;;;1.52;0.73;;;;;;;21.77;57.39;102086.88;4915145;29;20184;-86
2022/06/28 10:59:04;;;;;;;1.80;0.63;;;;;;;21.68;57.09;102087.53;4890149;29;20044;-89
2022/06/28 11:01:39;;;;;;;1.20;0.70;;;;;;;21.65;59.57;102079.66;4913592;29;20036;-84
2022/06/28 11:04:21;;;;;;;1.38;0.65;;;;;;;21.68;59.76;102080.28;4912958;29;20052;-86
2022/06/28 11:07:09;;;;;;;2.33;0.90;;;;;;;21.78;61.72;102088.59;4915197;29;20047;-88
2022/06/28 11:10:05;;;;;;;1.77;0.80;;;;;;;21.88;59.44;102082.50;4879606;29;20613;-88
2022/06/28 11:12:37;;;;;;;2.05;0.70;;;;;;;21.96;60.99;102074.72;4896675;29;20066;-89
2022/06/28 11:15:06;;;;;;;4.82;0.80;;;;;;;21.87;58.62;102083.47;4896688;29;21398;-88
2022/06/28 11:17:40;;;;;;;1.40;0.60;;;;;;;21.83;60.18;102078.31;4900277;29;21446;-88
2022/06/28 11:20:09;;;;;;;1.15;0.50;;;;;;;21.84;60.20;102085.44;4897693;29;20032;-87
2022/06/28 11:22:39;;;;;;;2.55;0.75;;;;;;;21.97;61.39;102071.88;4898762;29;20250;-89
2022/06/28 11:25:07;;;;;;;1.27;0.52;;;;;;;22.06;61.18;102075.72;4899917;29;20043;-88
2022/06/28 11:27:33;;;;;;;2.25;0.75;;;;;;;22.04;53.10;102079.53;4883022;29;20059;-87
2022/06/28 11:30:05;;;;;;;0.98;0.60;;;;;;;21.87;56.54;102086.16;4879796;29;20060;-86
2022/06/28 11:32:36;;;;;;;2.03;0.70;;;;;;;21.83;58.31;102078.31;4900262;29;20039;-87
2022/06/28 11:35:07;;;;;;;2.25;0.68;;;;;;;21.89;59.52;102068.91;4898216;29;20503;-87
2022/06/28 11:37:53;;;;;;;4.60;0.50;;;;;;;21.97;55.55;102061.09;4913285;29;20036;-88
2022/06/28 11:40:27;;;;;;;2.40;0.75;;;;;;;22.01;58.39;102056.34;4914062;29;20676;-87
2022/06/28 11:43:01;;;;;;;1.10;0.65;;;;;;;22.08;56.94;102065.72;4882392;29;20127;-86
2022/06/28 11:45:30;;;;;;;2.33;0.65;;;;;;;22.09;57.71;102066.56;4897551;29;20054;-86
2022/06/28 11:47:56;;;;;;;0.98;0.60;;;;;;;22.05;59.17;102063.22;4914393;29;20485;-87
2022/06/28 11:50:22;;;;;;;1.80;0.70;;;;;;;22.01;57.32;102058.19;4913693;29;20509;-82
2022/06/28 11:52:49;;;;;;;2.15;0.75;;;;;;;21.89;58.81;102062.69;4914245;29;20075;-89
2022/06/28 11:55:16;;;;;;;1.85;0.60;;;;;;;21.79;58.11;102063.34;4903616;29;20183;-88
2022/06/28 11:57:44;;;;;;;1.00;0.55;;;;;;;21.78;57.24;102055.41;4898460;29;20036;-83
2022/06/28 12:00:13;;;;;;;1.38;0.60;;;;;;;21.82;60.42;102071.22;4913427;29;20044;-88
2022/06/28 12:02:55;;;;;;;1.65;0.75;;;;;;;21.94;58.35;102057.78;4888692;29;20043;-82
2022/06/28 12:05:32;;;;;;;1.88;0.70;;;;;;;22.08;57.28;102052.25;4912335;29;20044;-80
2022/06/28 12:07:58;;;;;;;2.25;0.70;;;;;;;22.08;60.51;102062.16;4894421;29;20040;-84
2022/06/28 12:10:32;;;;;;;1.27;0.77;;;;;;;22.14;57.79;102058.13;4911846;29;20044;-78
2022/06/28 12:13:12;;;;;;;1.27;0.70;;;;;;;22.08;57.10;102062.16;4903208;29;20882;-82
2022/06/28 12:15:37;;;;;;;1.95;0.90;;;;;;;22.05;56.45;102054.31;4879265;29;20044;-83
2022/06/28 12:18:05;;;;;;;1.67;0.60;;;;;;;21.95;57.53;102057.69;4895868;29;20458;-82
2022/06/28 12:20:32;;;;;;;0.95;0.60;;;;;;;21.96;59.48;102053.16;4912869;29;20047;-80
2022/06/28 12:23:03;;;;;;;3.13;0.90;;;;;;;22.09;56.85;102059.34;4910853;29;20059;-74
2022/06/28 12:25:29;;;;;;;1.05;0.90;;;;;;;22.14;58.31;102060.81;4909424;29;20059;-74
2022/06/28 12:27:55;;;;;;;3.13;0.60;;;;;;;22.19;59.01;102055.94;4909826;29;20056;-74
2022/06/28 12:30:21;;;;;;;2.53;0.70;;;;;;;22.24;58.85;102059.16;4908897;29;20084;-74
2022/06/28 12:32:48;;;;;;;0.82;0.75;;;;;;;22.28;56.14;102054.38;4910350;29;20059;-76
2022/06/28 12:35:14;;;;;;;1.40;0.88;;;;;;;22.20;58.06;102060.34;4910973;29;20051;-75
2022/06/28 12:37:39;;;;;;;1.67;0.70;;;;;;;22.19;59.69;102064.03;4894670;29;20036;-74
2022/06/28 12:40:06;;;;;;;1.48;0.60;;;;;;;22.21;57.78;102067.47;4910662;29;20460;-74